Aérodrome :
LOGIN :

S'inscrire | Disclaimer

   EN    FR    IT 

 










Légende :    VFR   VFR Marginal   IFR   IFR Intensif   IFR Très Intensif
Visi : 
Plafond : 
>= 8 km
>= 3000ft
5 à 8 km
1000 à 3000 ft
1500m à 5 km
500 à 1000 ft
800 à 1500m
200 à 500 ft
< 800m
< 200 ft
Symboles :   Orages  Brouillard  Fortes neiges  Fortes précipitations  Vent > 20 kt
SIGMETs :   Divers  Orages  Givrage  Turbulence  Onde Orograph.  Cendres Volcan.






- Altitude de l'aérodrome : 863 ft
- Code IATA : ZAZ


LEZG - Zaragoza Aragon

DERNIER METAR :
  • 140030Z VRB04KT 9999 FEW060 09/07 Q1005

METARs EXPIRÉS :
  • 140000Z 09006KT 9999 FEW060 08/07 Q1005
  • 132330Z 09007KT 9999 FEW060 08/07 Q1005
  • 132300Z 12007KT 9999 FEW050 08/07 Q1005
  • 132230Z 11006KT 9999 FEW050 08/07 Q1006
  • 132200Z 11006KT 070V140 CAVOK 09/07 Q1006

TAF TAF LEZG
Valide du 14 à 00h jusqu'au 15 à 00h UTC


132300Z 1400/1424 24015KT 9999 SCT030 BKN080 TX12/1414Z TN05/1406Z
TEMPO 1400/1405 22017G27KT
PROB40
TEMPO 1403/1410 5000 RA BKN014
PROB40
TEMPO 1406/1409 30013KT



MET'MAP, la Météo Aéronautique d'un coup d'oeil ! - Copyright ORBIFLY Décembre 2007 - Disclaimer

ORBIFLY MET'MAP TEAM :

Programmation & Développement : Alexandra Zaïnal
Conception & Développement : Baudouin d'Aumeries
Co-Programmation & Développement : Marc-Olivier Méhu
Soutien technique & logistique : Manuel Goepfert

Contact : metmap@orbifly.com




SOURCES & CREDITS :

   NOAA